Time;durP1;ratioP1;P1;durP2;ratioP2;P2;SDS_P1;SDS_P2;PMS_P1;PMS_P2;Temp;Humidity;BMP_temperature;BMP_pressure;BME280_temperature;BME280_humidity;BME280_pressure;Samples;Min_cycle;Max_cycle;Signal;HPM_P1;HPM_P2
2022/08/18 00:00:43;;;;;;;11.98;6.47;;;;;;;;;;5030153;28;20895;-59
2022/08/18 00:03:10;;;;;;;12.27;6.68;;;;;;;;;;5030173;28;20380;-59
2022/08/18 00:05:36;;;;;;;12.98;6.80;;;;;;;;;;5028888;28;20395;-59
2022/08/18 00:08:02;;;;;;;11.52;6.82;;;;;;;;;;5028414;28;20498;-59
2022/08/18 00:10:28;;;;;;;11.85;6.00;;;;;;;;;;5030245;28;20469;-59
2022/08/18 00:12:54;;;;;;;11.68;6.32;;;;;;;;;;5029063;28;20595;-59
2022/08/18 00:15:20;;;;;;;11.37;6.47;;;;;;;;;;5029950;28;20383;-59
2022/08/18 00:17:47;;;;;;;11.10;6.45;;;;;;;;;;5029270;28;20414;-59
2022/08/18 00:20:15;;;;;;;11.77;6.00;;;;;;;;;;5029469;28;20478;-58
2022/08/18 00:22:41;;;;;;;11.30;6.00;;;;;;;;;;5029441;28;20417;-58
2022/08/18 00:25:11;;;;;;;11.90;5.68;;;;;;;;;;5029539;28;20407;-58
2022/08/18 00:27:38;;;;;;;11.00;6.00;;;;;;;;;;5029064;28;20445;-59
2022/08/18 00:30:06;;;;;;;9.95;5.53;;;;;;;;;;5028319;28;20394;-58
2022/08/18 00:32:35;;;;;;;11.30;6.18;;;;;;;;;;5028351;28;20384;-58
2022/08/18 00:35:08;;;;;;;10.35;5.80;;;;;;;;;;5029003;28;20386;-58
2022/08/18 00:37:35;;;;;;;9.53;5.50;;;;;;;;;;5027739;28;20368;-59
2022/08/18 00:40:02;;;;;;;12.40;6.60;;;;;;;;;;5030769;28;20872;-58
2022/08/18 00:42:30;;;;;;;11.10;6.35;;;;;;;;;;5029863;28;20442;-58
2022/08/18 00:44:57;;;;;;;9.55;5.40;;;;;;;;;;5027648;28;20529;-58
2022/08/18 00:47:23;;;;;;;11.15;5.90;;;;;;;;;;5029628;28;20472;-58
2022/08/18 00:49:51;;;;;;;11.38;6.00;;;;;;;;;;5029124;28;20529;-58
2022/08/18 00:52:18;;;;;;;10.20;5.60;;;;;;;;;;5029598;28;20375;-58
2022/08/18 00:54:45;;;;;;;12.02;5.97;;;;;;;;;;5028997;28;20658;-58
2022/08/18 00:57:13;;;;;;;11.30;6.10;;;;;;;;;;5029817;28;20399;-58
2022/08/18 00:59:42;;;;;;;11.10;6.03;;;;;;;;;;5028358;28;20382;-62
2022/08/18 01:02:11;;;;;;;11.15;6.38;;;;;;;;;;5029580;28;20913;-58
2022/08/18 01:04:42;;;;;;;13.00;5.90;;;;;;;;;;5029149;28;20804;-59
2022/08/18 01:07:11;;;;;;;12.50;6.00;;;;;;;;;;5029210;28;20410;-58
2022/08/18 01:09:37;;;;;;;10.30;5.85;;;;;;;;;;5028636;28;20390;-59
2022/08/18 01:12:03;;;;;;;12.00;6.63;;;;;;;;;;5029356;28;20406;-58
2022/08/18 01:14:29;;;;;;;11.63;6.20;;;;;;;;;;5029039;28;20470;-58
2022/08/18 01:22:35;;;;;;;12.98;7.28;;;;;;;;;;5028224;28;20410;-57
2022/08/18 01:27:46;;;;;;;12.85;6.50;;;;;;;;;;5027201;28;20533;-58
2022/08/18 01:30:14;;;;;;;16.43;6.90;;;;;;;;;;5029180;28;20379;-58
2022/08/18 01:32:41;;;;;;;10.70;6.32;;;;;;;;;;5027920;28;20769;-59
2022/08/18 01:35:09;;;;;;;11.90;6.20;;;;;;;;;;5027167;28;20868;-58
2022/08/18 01:37:35;;;;;;;11.10;6.40;;;;;;;;;;5028835;28;20414;-57
2022/08/18 01:40:05;;;;;;;12.32;6.10;;;;;;;;;;5028628;28;20383;-58
2022/08/18 01:42:31;;;;;;;11.30;6.30;;;;;;;;;;5025852;28;20459;-57
2022/08/18 01:44:57;;;;;;;13.73;6.50;;;;;;;;;;5028003;28;20375;-58
2022/08/18 01:47:23;;;;;;;10.98;6.45;;;;;;;;;;5028195;28;20406;-58
2022/08/18 01:49:49;;;;;;;12.73;7.30;;;;;;;;;;5027485;28;20387;-58
2022/08/18 01:52:19;;;;;;;11.88;6.40;;;;;;;;;;5028789;28;20721;-57
2022/08/18 01:54:46;;;;;;;12.00;6.80;;;;;;;;;;5027609;28;20411;-58
2022/08/18 01:57:13;;;;;;;10.43;6.32;;;;;;;;;;5025703;28;20399;-58
2022/08/18 01:59:39;;;;;;;12.20;6.90;;;;;;;;;;5027705;28;20448;-58
2022/08/18 02:02:06;;;;;;;13.20;7.20;;;;;;;;;;5028360;28;20394;-58
2022/08/18 02:04:33;;;;;;;13.02;7.60;;;;;;;;;;5025220;28;20387;-58
2022/08/18 02:07:01;;;;;;;12.27;7.38;;;;;;;;;;5027498;28;20418;-59
2022/08/18 02:09:27;;;;;;;11.87;6.40;;;;;;;;;;5026211;28;20402;-58
2022/08/18 02:11:54;;;;;;;11.32;6.85;;;;;;;;;;5026713;28;20487;-58
2022/08/18 02:14:20;;;;;;;13.18;7.68;;;;;;;;;;5027609;28;20473;-57
2022/08/18 02:16:46;;;;;;;13.45;7.63;;;;;;;;;;5027077;28;20403;-57
2022/08/18 02:19:12;;;;;;;13.23;7.27;;;;;;;;;;5027177;28;20370;-57
2022/08/18 02:21:38;;;;;;;13.80;7.97;;;;;;;;;;5027719;28;20792;-58
2022/08/18 02:24:04;;;;;;;14.45;7.80;;;;;;;;;;5027594;28;20386;-58
2022/08/18 02:26:30;;;;;;;13.85;7.78;;;;;;;;;;5026579;28;20438;-57
2022/08/18 02:28:57;;;;;;;14.65;7.85;;;;;;;;;;5027207;28;20505;-57
2022/08/18 02:31:23;;;;;;;12.20;7.40;;;;;;;;;;5028061;28;20378;-57
2022/08/18 02:33:50;;;;;;;14.33;7.83;;;;;;;;;;5027439;28;20390;-57
2022/08/18 02:36:16;;;;;;;13.20;7.40;;;;;;;;;;5028343;28;20424;-55
2022/08/18 02:38:42;;;;;;;12.30;7.70;;;;;;;;;;5027262;28;20852;-55
2022/08/18 02:41:10;;;;;;;10.55;6.10;;;;;;;;;;5027626;28;20438;-55
2022/08/18 02:43:36;;;;;;;12.07;7.30;;;;;;;;;;5027993;28;20748;-55
2022/08/18 02:46:04;;;;;;;14.18;7.90;;;;;;;;;;5027855;28;20394;-54
2022/08/18 02:48:33;;;;;;;13.00;7.30;;;;;;;;;;5026425;28;20383;-56
2022/08/18 02:51:04;;;;;;;13.13;6.93;;;;;;;;;;5026641;28;20411;-53
2022/08/18 02:53:30;;;;;;;12.40;7.63;;;;;;;;;;5027554;28;20419;-55
2022/08/18 02:56:08;;;;;;;12.45;6.72;;;;;;;;;;5027247;28;20391;-52
2022/08/18 02:58:34;;;;;;;13.02;7.32;;;;;;;;;;5025444;28;20457;-54
2022/08/18 03:01:00;;;;;;;14.15;7.20;;;;;;;;;;5026757;28;20764;-55
2022/08/18 03:03:26;;;;;;;13.32;7.32;;;;;;;;;;5027233;28;20470;-55
2022/08/18 03:05:52;;;;;;;11.75;7.10;;;;;;;;;;5023699;28;20380;-54
2022/08/18 03:08:18;;;;;;;13.50;7.40;;;;;;;;;;5027559;28;20411;-54
2022/08/18 03:10:44;;;;;;;12.00;7.53;;;;;;;;;;5026187;28;20463;-53
2022/08/18 03:13:12;;;;;;;12.93;7.13;;;;;;;;;;5027428;28;20467;-52
2022/08/18 03:15:38;;;;;;;13.23;7.75;;;;;;;;;;5025122;28;20896;-55
2022/08/18 03:18:04;;;;;;;13.48;7.85;;;;;;;;;;5026781;28;20406;-58
2022/08/18 03:20:30;;;;;;;11.50;6.72;;;;;;;;;;5026609;28;20769;-58
2022/08/18 03:22:56;;;;;;;11.90;6.93;;;;;;;;;;5027457;28;20499;-58
2022/08/18 03:25:22;;;;;;;11.88;6.60;;;;;;;;;;5030898;28;20466;-58
2022/08/18 03:27:48;;;;;;;12.15;7.18;;;;;;;;;;5030059;28;20418;-58
2022/08/18 03:30:14;;;;;;;13.30;6.60;;;;;;;;;;5030805;28;20434;-58
2022/08/18 03:32:40;;;;;;;14.20;7.45;;;;;;;;;;5030514;28;20759;-58
2022/08/18 03:35:07;;;;;;;11.63;6.80;;;;;;;;;;5030751;28;20383;-58
2022/08/18 03:37:33;;;;;;;11.23;6.78;;;;;;;;;;5030888;28;20405;-58
2022/08/18 03:39:59;;;;;;;13.20;6.90;;;;;;;;;;5028486;28;21099;-58
2022/08/18 03:42:25;;;;;;;12.82;7.40;;;;;;;;;;5030723;28;20395;-58
2022/08/18 03:44:51;;;;;;;11.63;6.90;;;;;;;;;;5030103;28;20665;-56
2022/08/18 03:47:18;;;;;;;11.68;7.10;;;;;;;;;;5030118;28;20804;-56
2022/08/18 03:49:44;;;;;;;11.50;6.75;;;;;;;;;;5029253;28;20887;-56
2022/08/18 03:52:10;;;;;;;11.45;7.10;;;;;;;;;;5030392;28;20414;-56
2022/08/18 03:54:37;;;;;;;11.68;7.00;;;;;;;;;;5030327;28;20419;-55
2022/08/18 03:57:04;;;;;;;11.37;6.57;;;;;;;;;;5030823;28;20474;-55
2022/08/18 03:59:30;;;;;;;13.50;6.90;;;;;;;;;;5029788;28;20388;-56
2022/08/18 04:01:56;;;;;;;11.63;6.90;;;;;;;;;;5028553;28;20395;-56
2022/08/18 04:04:24;;;;;;;12.60;7.13;;;;;;;;;;5028401;28;20390;-56
2022/08/18 04:06:57;;;;;;;11.98;6.75;;;;;;;;;;5026304;28;20442;-56
2022/08/18 04:09:23;;;;;;;12.52;7.07;;;;;;;;;;5029778;28;20489;-56
2022/08/18 04:11:50;;;;;;;13.40;7.00;;;;;;;;;;5028954;28;20387;-56
2022/08/18 04:14:18;;;;;;;11.50;6.50;;;;;;;;;;5029633;28;20391;-55
2022/08/18 04:16:45;;;;;;;11.00;6.57;;;;;;;;;;5029042;28;20391;-57
2022/08/18 04:19:12;;;;;;;13.10;7.25;;;;;;;;;;5029037;28;20956;-59
2022/08/18 04:21:39;;;;;;;11.80;7.13;;;;;;;;;;5029897;28;20377;-58
2022/08/18 04:24:06;;;;;;;14.40;7.40;;;;;;;;;;5028441;28;20398;-58
2022/08/18 04:26:34;;;;;;;12.90;6.90;;;;;;;;;;5029061;28;20434;-58
2022/08/18 04:29:00;;;;;;;11.77;7.13;;;;;;;;;;5028412;28;20391;-57
2022/08/18 04:31:27;;;;;;;13.45;6.85;;;;;;;;;;5029394;28;21022;-58
2022/08/18 04:33:53;;;;;;;12.60;7.25;;;;;;;;;;5027112;28;20430;-59
2022/08/18 04:36:19;;;;;;;12.90;7.75;;;;;;;;;;5029605;28;20480;-57
2022/08/18 04:38:45;;;;;;;13.77;7.85;;;;;;;;;;5028306;28;20383;-58
2022/08/18 04:41:12;;;;;;;12.50;6.50;;;;;;;;;;5028919;28;20383;-57
2022/08/18 04:43:38;;;;;;;12.55;7.65;;;;;;;;;;5028533;28;20376;-58
2022/08/18 04:46:05;;;;;;;12.75;7.95;;;;;;;;;;5028658;28;20414;-58
2022/08/18 04:48:33;;;;;;;13.10;7.90;;;;;;;;;;5028693;28;20897;-58
2022/08/18 04:51:06;;;;;;;13.23;7.28;;;;;;;;;;5025688;28;21010;-58
2022/08/18 04:53:45;;;;;;;12.80;7.50;;;;;;;;;;5029221;28;20371;-58
2022/08/18 04:56:20;;;;;;;12.02;7.55;;;;;;;;;;5028630;28;20391;-58
2022/08/18 04:58:51;;;;;;;13.93;7.90;;;;;;;;;;5026847;28;20883;-58
2022/08/18 05:01:17;;;;;;;12.63;7.13;;;;;;;;;;5028337;28;20391;-57
2022/08/18 05:03:43;;;;;;;12.97;8.13;;;;;;;;;;5018457;28;20392;-58
2022/08/18 05:06:09;;;;;;;14.13;8.23;;;;;;;;;;5028147;28;20380;-57
2022/08/18 05:08:35;;;;;;;15.18;7.80;;;;;;;;;;5027997;28;20460;-58
2022/08/18 05:11:01;;;;;;;13.13;7.00;;;;;;;;;;5027501;28;20445;-58
2022/08/18 05:13:27;;;;;;;12.15;7.35;;;;;;;;;;5028132;28;20756;-58
2022/08/18 05:15:55;;;;;;;12.60;7.55;;;;;;;;;;5027286;28;20474;-57
2022/08/18 05:18:23;;;;;;;12.55;7.88;;;;;;;;;;5028292;28;20389;-57
2022/08/18 05:20:50;;;;;;;13.05;7.60;;;;;;;;;;5027822;28;20445;-57
2022/08/18 05:23:16;;;;;;;13.05;7.97;;;;;;;;;;5028663;28;20380;-59
2022/08/18 05:25:42;;;;;;;15.43;7.35;;;;;;;;;;5027606;28;20418;-58
2022/08/18 05:28:08;;;;;;;13.00;7.80;;;;;;;;;;5028151;28;20899;-57
2022/08/18 05:30:35;;;;;;;13.43;7.65;;;;;;;;;;5027874;28;20474;-57
2022/08/18 05:33:02;;;;;;;12.53;7.60;;;;;;;;;;5027621;28;20459;-58
2022/08/18 05:35:34;;;;;;;12.97;7.70;;;;;;;;;;5026808;28;20461;-58
2022/08/18 05:38:08;;;;;;;13.40;7.40;;;;;;;;;;5027999;28;20395;-59
2022/08/18 05:40:34;;;;;;;11.60;7.00;;;;;;;;;;5027629;28;20382;-58
2022/08/18 05:43:00;;;;;;;13.55;7.10;;;;;;;;;;5028229;28;20387;-57
2022/08/18 05:45:26;;;;;;;13.15;7.57;;;;;;;;;;5028225;28;20396;-58
2022/08/18 05:47:57;;;;;;;11.80;6.60;;;;;;;;;;5028089;28;20728;-58
2022/08/18 05:50:23;;;;;;;11.63;6.70;;;;;;;;;;5028856;28;20437;-58
2022/08/18 05:52:52;;;;;;;13.10;7.07;;;;;;;;;;5028094;28;20403;-58
2022/08/18 05:58:19;;;;;;;11.77;6.78;;;;;;;;;;5025834;28;20414;-58
2022/08/18 06:00:52;;;;;;;12.13;6.93;;;;;;;;;;5027185;28;20399;-58
2022/08/18 06:03:24;;;;;;;16.13;7.60;;;;;;;;;;5027004;28;20403;-58
2022/08/18 06:05:56;;;;;;;11.70;7.50;;;;;;;;;;5022656;28;20405;-58
2022/08/18 06:08:24;;;;;;;12.73;7.47;;;;;;;;;;5026574;28;20415;-58
2022/08/18 06:10:50;;;;;;;13.90;7.65;;;;;;;;;;5026759;28;20879;-55
2022/08/18 06:13:18;;;;;;;13.25;6.45;;;;;;;;;;5025432;28;20774;-57
2022/08/18 06:15:59;;;;;;;13.40;7.20;;;;;;;;;;5026738;28;20387;-56
2022/08/18 06:18:37;;;;;;;11.93;6.77;;;;;;;;;;5018266;28;20441;-57
2022/08/18 06:21:22;;;;;;;12.80;7.22;;;;;;;;;;5026996;28;20395;-58
2022/08/18 06:24:11;;;;;;;13.73;7.00;;;;;;;;;;5027452;28;20482;-58
2022/08/18 06:26:46;;;;;;;13.27;7.50;;;;;;;;;;5016068;28;20430;-59
2022/08/18 06:29:23;;;;;;;12.98;7.70;;;;;;;;;;5021108;28;20405;-59
2022/08/18 06:32:22;;;;;;;14.48;7.78;;;;;;;;;;5026253;28;20415;-58
2022/08/18 06:35:00;;;;;;;12.85;7.32;;;;;;;;;;4992686;28;20395;-58
2022/08/18 06:37:30;;;;;;;16.48;8.05;;;;;;;;;;5027850;28;20383;-58
2022/08/18 06:39:56;;;;;;;12.15;7.18;;;;;;;;;;5024536;28;20848;-58
2022/08/18 06:42:30;;;;;;;12.50;7.10;;;;;;;;;;5027645;28;20860;-58
2022/08/18 06:45:11;;;;;;;12.40;7.78;;;;;;;;;;5024882;28;20379;-58
2022/08/18 06:47:41;;;;;;;11.87;7.00;;;;;;;;;;5025571;28;20529;-58
2022/08/18 06:50:24;;;;;;;16.08;7.40;;;;;;;;;;5026035;28;20888;-58
2022/08/18 06:53:02;;;;;;;13.97;7.40;;;;;;;;;;5027063;28;20462;-58
2022/08/18 06:55:54;;;;;;;14.65;7.80;;;;;;;;;;5026201;28;20863;-58
2022/08/18 06:58:29;;;;;;;12.27;7.18;;;;;;;;;;5028308;28;20407;-59
2022/08/18 07:00:55;;;;;;;12.50;7.20;;;;;;;;;;5031077;28;20398;-59
2022/08/18 07:03:22;;;;;;;12.43;7.53;;;;;;;;;;5029516;28;20474;-59
2022/08/18 07:06:02;;;;;;;12.75;7.25;;;;;;;;;;5030303;28;20391;-59
2022/08/18 07:08:31;;;;;;;13.30;7.70;;;;;;;;;;5030362;28;20407;-58
2022/08/18 07:11:10;;;;;;;12.85;7.20;;;;;;;;;;5027776;28;20981;-59
2022/08/18 07:13:37;;;;;;;11.40;7.00;;;;;;;;;;5028099;28;20761;-58
2022/08/18 07:16:22;;;;;;;13.00;7.35;;;;;;;;;;5030252;28;20382;-59
2022/08/18 07:18:48;;;;;;;11.57;6.60;;;;;;;;;;5029160;28;20414;-59
2022/08/18 07:21:25;;;;;;;10.35;6.40;;;;;;;;;;5031381;28;20367;-59
2022/08/18 07:24:20;;;;;;;12.05;6.00;;;;;;;;;;5030703;28;20432;-59
2022/08/18 07:27:04;;;;;;;10.23;5.60;;;;;;;;;;5021197;28;20529;-60
2022/08/18 07:29:32;;;;;;;10.88;5.90;;;;;;;;;;5031145;28;20380;-55
2022/08/18 07:32:01;;;;;;;10.68;5.93;;;;;;;;;;5030255;28;20411;-57
2022/08/18 07:34:36;;;;;;;10.05;5.75;;;;;;;;;;5028732;28;20395;-58
2022/08/18 07:37:21;;;;;;;17.42;6.75;;;;;;;;;;5029688;28;20386;-58
2022/08/18 07:39:54;;;;;;;12.10;6.07;;;;;;;;;;5027628;28;20494;-58
2022/08/18 07:42:39;;;;;;;11.20;6.20;;;;;;;;;;5031293;28;20498;-57
2022/08/18 07:45:20;;;;;;;10.90;5.88;;;;;;;;;;5030460;28;20429;-57
2022/08/18 07:48:01;;;;;;;12.20;6.93;;;;;;;;;;5028349;28;20429;-58
2022/08/18 07:50:27;;;;;;;12.93;6.32;;;;;;;;;;5029944;28;20471;-57
2022/08/18 07:53:02;;;;;;;12.48;6.70;;;;;;;;;;5029882;28;20379;-57
2022/08/18 07:55:34;;;;;;;13.85;6.90;;;;;;;;;;5030310;28;20391;-57
2022/08/18 07:58:06;;;;;;;12.65;6.47;;;;;;;;;;5029525;28;20470;-58
2022/08/18 08:00:39;;;;;;;13.07;6.55;;;;;;;;;;5027875;28;20431;-57
2022/08/18 08:03:11;;;;;;;14.73;7.75;;;;;;;;;;5015178;28;20990;-57
2022/08/18 08:05:40;;;;;;;14.10;6.93;;;;;;;;;;5009529;28;20428;-57
2022/08/18 08:08:24;;;;;;;11.80;7.00;;;;;;;;;;5009730;28;20419;-57
2022/08/18 08:10:53;;;;;;;12.55;6.75;;;;;;;;;;5008720;28;20746;-57
2022/08/18 08:13:28;;;;;;;15.43;7.17;;;;;;;;;;5014490;28;20395;-57
2022/08/18 08:16:12;;;;;;;13.57;7.20;;;;;;;;;;5023075;28;20407;-57
2022/08/18 08:18:38;;;;;;;13.93;7.13;;;;;;;;;;5014473;28;20393;-57
2022/08/18 08:21:14;;;;;;;13.90;7.22;;;;;;;;;;5017345;28;21083;-57
2022/08/18 08:23:56;;;;;;;12.17;7.03;;;;;;;;;;5010341;28;20768;-57
2022/08/18 08:26:31;;;;;;;14.43;7.30;;;;;;;;;;5026432;28;20451;-58
2022/08/18 08:29:17;;;;;;;14.57;6.95;;;;;;;;;;5022003;28;20422;-57
2022/08/18 08:31:53;;;;;;;18.98;8.32;;;;;;;;;;5026497;28;20411;-59
2022/08/18 08:34:39;;;;;;;13.68;6.68;;;;;;;;;;5025051;28;20407;-58
2022/08/18 08:37:07;;;;;;;15.18;6.85;;;;;;;;;;5027406;28;20458;-58
2022/08/18 08:39:33;;;;;;;16.17;6.60;;;;;;;;;;5029661;28;20490;-58
2022/08/18 08:42:05;;;;;;;11.85;6.78;;;;;;;;;;5027745;28;20479;-58
2022/08/18 08:44:45;;;;;;;12.85;7.00;;;;;;;;;;5027228;28;20383;-58
2022/08/18 08:47:17;;;;;;;13.63;6.90;;;;;;;;;;5022251;28;20438;-58
2022/08/18 08:49:46;;;;;;;14.15;7.10;;;;;;;;;;5027089;28;20410;-58
2022/08/18 08:52:15;;;;;;;16.60;6.82;;;;;;;;;;5028254;28;20802;-58
2022/08/18 08:54:53;;;;;;;14.32;6.90;;;;;;;;;;5029061;28;20493;-58
2022/08/18 08:57:20;;;;;;;11.65;6.63;;;;;;;;;;5028360;28;20395;-57
2022/08/18 08:59:47;;;;;;;10.82;6.10;;;;;;;;;;5028777;28;20473;-59
2022/08/18 09:02:29;;;;;;;12.95;6.97;;;;;;;;;;5028822;28;20382;-58
2022/08/18 09:05:13;;;;;;;13.05;6.00;;;;;;;;;;5025828;28;20387;-58
2022/08/18 09:07:42;;;;;;;11.02;6.35;;;;;;;;;;5028098;28;20433;-58
2022/08/18 09:10:23;;;;;;;12.68;5.93;;;;;;;;;;5025323;28;20391;-58
2022/08/18 09:13:13;;;;;;;11.68;6.60;;;;;;;;;;5024014;28;20495;-59
2022/08/18 09:15:42;;;;;;;11.32;6.60;;;;;;;;;;5028072;28;20379;-57
2022/08/18 09:18:26;;;;;;;13.52;6.93;;;;;;;;;;5025720;28;20391;-57
2022/08/18 09:20:59;;;;;;;12.47;6.47;;;;;;;;;;5025839;28;20392;-58
2022/08/18 09:23:31;;;;;;;15.20;7.00;;;;;;;;;;5028687;28;20368;-58
2022/08/18 09:25:59;;;;;;;11.68;6.85;;;;;;;;;;5028068;28;20926;-58
2022/08/18 09:28:28;;;;;;;12.88;7.78;;;;;;;;;;5028908;28;20400;-57
2022/08/18 09:31:06;;;;;;;12.70;7.40;;;28.80;99.90;;;;;;5028530;28;20387;-58
2022/08/18 09:33:42;;;;;;;13.00;7.20;;;28.00;99.90;;;;;;5028864;28;20472;-57
2022/08/18 09:36:35;;;;;;;13.00;6.60;;;27.90;99.90;;;;;;5026032;28;20603;-58
2022/08/18 09:42:37;;;;;;;12.63;7.47;;;29.70;99.90;;;;;;5022383;28;20509;-58
2022/08/18 09:45:28;;;;;;;12.43;6.50;;;29.50;99.90;;;;;;5028134;28;20437;-58
2022/08/18 09:47:55;;;;;;;11.00;7.00;;;29.40;99.90;;;;;;5021095;28;20442;-58
2022/08/18 09:50:27;;;;;;;11.70;7.20;;;29.30;99.90;;;;;;5025822;28;20469;-58
2022/08/18 09:52:58;;;;;;;11.30;7.50;;;29.00;99.20;;;;;;5026371;28;20487;-57
2022/08/18 09:55:24;;;;;;;12.18;7.60;;;;;;;;;;5027360;28;20403;-58
2022/08/18 09:58:14;;;;;;;12.17;7.63;;;;;;;;;;5027752;28;20441;-58
2022/08/18 10:00:40;;;;;;;12.02;7.10;;;;;;;;;;5023623;28;20442;-58
2022/08/18 10:03:15;;;;;;;12.00;7.70;;;;;;;;;;5026673;28;20467;-59
2022/08/18 10:05:54;;;;;;;12.50;7.70;;;;;;;;;;5026426;28;20372;-58
2022/08/18 10:08:28;;;;;;;13.23;7.95;;;;;;;;;;5026132;28;20423;-59
2022/08/18 10:11:02;;;;;;;14.43;7.90;;;;;;;;;;5021825;28;20387;-58
2022/08/18 10:13:31;;;;;;;13.35;8.80;;;;;;;;;;5027470;28;20375;-59
2022/08/18 10:16:35;;;;;;;11.52;7.57;;;31.00;27.10;;;;;;5026667;28;20777;-58
2022/08/18 10:19:15;;;;;;;11.60;7.20;;;31.70;21.10;;;;;;5024766;28;20464;-58
2022/08/18 10:21:58;;;;;;;13.70;7.70;;;31.60;13.90;;;;;;5025851;28;20401;-57
2022/08/18 10:24:55;;;;;;;12.95;7.40;;;31.90;8.40;;;;;;5026280;28;20383;-58
2022/08/18 10:27:56;;;;;;;11.55;7.38;;;32.50;4.10;;;;;;5025466;28;20427;-58
2022/08/18 10:30:30;;;;;;;13.30;8.60;;;33.20;1.00;;;;;;4945446;29;20402;-58
2022/08/18 10:32:56;;;;;;;13.05;9.13;;;33.30;1.00;;;;;;5017391;28;20398;-58
2022/08/18 10:35:34;;;;;;;13.27;9.20;;;33.10;1.00;;;;;;5030922;28;20406;-58
2022/08/18 10:38:43;;;;;;;12.63;9.30;;;33.10;1.00;;;;;;5029012;28;20399;-58
2022/08/18 10:41:21;;;;;;;13.75;8.43;;;32.30;1.00;;;;;;5024585;28;20453;-58
2022/08/18 10:43:49;;;;;;;14.05;8.65;;;31.60;1.00;;;;;;5030586;28;20391;-59
2022/08/18 10:46:19;;;;;;;12.25;8.05;;;30.70;1.00;;;;;;5027858;28;20549;-57
2022/08/18 10:49:12;;;;;;;11.50;7.07;;;30.30;1.00;;;;;;5030867;28;20414;-59
2022/08/18 10:52:02;;;;;;;12.70;7.88;;;30.60;1.00;;;;;;5029204;28;20398;-58
2022/08/18 10:54:52;;;;;;;14.50;9.70;;;30.60;1.00;;;;;;5031184;28;20391;-58
2022/08/18 10:57:47;;;;;;;13.25;8.52;;;30.70;1.00;;;;;;5030374;28;20418;-58
2022/08/18 11:00:18;;;;;;;12.75;7.55;;;30.30;1.00;;;;;;5030440;28;20440;-58
2022/08/18 11:03:19;;;;;;;13.88;8.75;;;30.60;1.00;;;;;;5031997;28;20382;-58
2022/08/18 11:05:45;;;;;;;12.60;8.73;;;30.70;1.00;;;;;;5024299;28;20406;-59
2022/08/18 11:08:19;;;;;;;13.27;8.43;;;31.10;1.00;;;;;;5031257;28;20823;-58
2022/08/18 11:10:47;;;;;;;13.35;8.70;;;31.20;1.00;;;;;;5029763;28;20469;-59
2022/08/18 11:13:24;;;;;;;13.47;9.57;;;31.20;1.00;;;;;;5031179;28;20379;-59
2022/08/18 11:16:02;;;;;;;12.63;8.07;;;31.00;1.00;;;;;;5030850;28;20816;-59
2022/08/18 11:18:35;;;;;;;13.07;8.70;;;30.90;1.00;;;;;;5031952;28;20379;-59
2022/08/18 11:21:31;;;;;;;14.40;8.50;;;30.60;1.00;;;;;;5030905;28;20387;-60
2022/08/18 11:24:06;;;;;;;13.40;8.60;;;30.20;1.00;;;;;;5030721;28;20395;-59
2022/08/18 11:26:34;;;;;;;13.60;8.50;;;30.20;1.00;;;;;;5031343;28;20481;-60
2022/08/18 11:29:15;;;;;;;16.27;8.85;;;30.40;1.00;;;;;;5025134;28;20457;-60
2022/08/18 11:31:41;;;;;;;14.30;9.30;;;30.30;1.00;;;;;;5034123;28;20836;-60
2022/08/18 11:34:15;;;;;;;14.93;8.80;;;30.20;1.00;;;;;;5030499;28;20379;-61
2022/08/18 11:36:41;;;;;;;14.02;9.13;;;30.20;1.00;;;;;;5028000;28;20416;-61
2022/08/18 11:39:11;;;;;;;16.65;10.10;;;30.10;1.00;;;;;;5026706;28;20497;-62
2022/08/18 11:41:39;;;;;;;16.15;10.05;;;30.10;1.00;;;;;;5030258;28;20445;-62
2022/08/18 11:44:14;;;;;;;15.00;10.20;;;29.80;1.00;;;;;;5026671;28;20442;-62
2022/08/18 11:46:40;;;;;;;13.13;8.80;;;29.50;1.00;;;;;;5027663;28;20488;-60
2022/08/18 11:49:31;;;;;;;13.48;8.23;;;29.10;1.00;;;;;;5028023;28;20414;-59
2022/08/18 11:52:04;;;;;;;14.65;9.35;;;;;;;;;;5044104;28;20453;-60
2022/08/18 11:54:43;;;;;;;13.80;9.17;;;29.10;1.00;;;;;;5031069;28;20458;-60
2022/08/18 11:57:39;;;;;;;15.50;8.60;;;29.40;1.00;;;;;;5027936;28;20418;-60
2022/08/18 12:00:58;;;;;;;14.68;9.45;;;29.30;1.00;;;;;;5027408;28;20407;-60
2022/08/18 12:03:44;;;;;;;13.93;9.30;;;28.60;1.00;;;;;;5001974;28;20445;-59
2022/08/18 12:06:14;;;;;;;16.95;10.57;;;;;;;;;;5027379;28;21178;-59
2022/08/18 12:09:14;;;;;;;16.50;10.17;;;29.30;1.00;;;;;;5030017;28;20407;-59
2022/08/18 12:12:17;;;;;;;17.77;9.60;;;29.30;1.00;;;;;;5029852;28;20473;-59
2022/08/18 12:14:59;;;;;;;13.43;9.60;;;29.80;1.00;;;;;;5027868;28;20767;-59
2022/08/18 12:17:27;;;;;;;15.43;9.77;;;30.30;1.00;;;;;;5034597;28;20838;-59
2022/08/18 12:19:53;;;;;;;16.37;9.60;;;30.30;1.00;;;;;;5009910;28;20440;-56
2022/08/18 12:22:23;;;;;;;15.97;9.83;;;30.20;1.00;;;;;;5024393;28;20447;-55
2022/08/18 12:24:50;;;;;;;14.05;9.13;;;29.90;1.00;;;;;;5028888;28;20398;-55
2022/08/18 12:27:18;;;;;;;13.05;8.38;;;29.00;1.00;;;;;;5029875;28;20442;-55
2022/08/18 12:29:45;;;;;;;14.43;8.65;;;29.90;1.00;;;;;;5029805;28;20387;-55
2022/08/18 12:32:13;;;;;;;11.83;8.00;;;29.80;1.00;;;;;;5029546;28;20498;-54
2022/08/18 12:34:39;;;;;;;15.27;9.50;;;29.80;1.00;;;;;;5029914;28;20422;-55
2022/08/18 12:37:09;;;;;;;15.15;9.27;;;29.90;1.00;;;;;;5029433;28;20411;-55
2022/08/18 12:39:35;;;;;;;14.15;8.95;;;29.90;1.00;;;;;;5030139;28;20473;-55
2022/08/18 12:42:01;;;;;;;13.18;8.13;;;29.90;1.00;;;;;;5029539;28;20383;-55
2022/08/18 12:44:27;;;;;;;13.53;8.13;;;30.20;1.00;;;;;;5029902;28;20390;-56
2022/08/18 12:46:54;;;;;;;14.60;7.93;;;30.20;1.00;;;;;;5029456;28;20410;-55
2022/08/18 12:49:23;;;;;;;13.38;8.48;;;29.90;1.00;;;;;;5029685;28;20468;-55
2022/08/18 12:51:50;;;;;;;14.68;8.70;;;29.70;1.00;;;;;;5029483;28;20449;-56
2022/08/18 12:54:17;;;;;;;12.98;8.45;;;30.00;1.00;;;;;;5029947;28;20415;-55
2022/08/18 12:56:47;;;;;;;13.98;8.95;;;30.20;1.00;;;;;;5029335;28;20395;-55
2022/08/18 12:59:12;;;;;;;18.55;9.20;;;30.20;1.00;;;;;;5028990;28;20383;-56
2022/08/18 13:01:39;;;;;;;13.40;9.03;;;30.00;1.00;;;;;;5028315;28;20395;-55
2022/08/18 13:04:05;;;;;;;13.98;8.30;;;29.60;1.00;;;;;;5028401;28;20441;-55
2022/08/18 13:06:35;;;;;;;13.90;8.48;;;29.80;1.00;;;;;;5029587;28;20810;-55
2022/08/18 13:09:00;;;;;;;13.30;8.30;;;30.30;1.00;;;;;;5028686;28;20419;-56
2022/08/18 13:11:26;;;;;;;13.00;8.70;;;30.70;1.00;;;;;;5029478;28;20886;-56
2022/08/18 13:13:53;;;;;;;14.47;9.17;;;30.80;1.00;;;;;;5028386;28;20887;-55
2022/08/18 13:16:19;;;;;;;12.93;7.80;;;30.70;1.00;;;;;;5029476;28;20394;-55
2022/08/18 13:18:45;;;;;;;13.27;8.30;;;30.80;1.00;;;;;;5029456;28;20375;-55
2022/08/18 13:21:13;;;;;;;12.70;8.40;;;30.50;1.00;;;;;;5028654;28;20375;-55
2022/08/18 13:23:39;;;;;;;13.87;8.70;;;30.30;1.00;;;;;;5029271;28;20391;-55
2022/08/18 13:26:08;;;;;;;12.68;7.60;;;30.30;1.00;;;;;;5028374;28;20750;-55
2022/08/18 13:28:35;;;;;;;13.13;7.30;;;30.10;1.00;;;;;;5026927;28;20478;-56
2022/08/18 13:31:02;;;;;;;14.73;7.97;;;30.30;1.00;;;;;;5027564;28;20423;-55
2022/08/18 13:33:28;;;;;;;13.40;6.88;;;30.10;1.00;;;;;;5029089;28;20466;-55
2022/08/18 13:35:54;;;;;;;11.90;6.95;;;30.20;1.00;;;;;;5027966;28;20449;-55
2022/08/18 13:38:22;;;;;;;14.00;7.80;;;30.20;1.00;;;;;;5024430;28;20878;-56
2022/08/18 13:40:52;;;;;;;14.30;7.90;;;30.60;1.00;;;;;;5012301;28;20940;-56
2022/08/18 13:43:24;;;;;;;12.20;7.78;;;30.20;1.00;;;;;;5026419;28;20474;-56
2022/08/18 13:45:50;;;;;;;14.48;7.70;;;30.10;1.00;;;;;;5027754;28;20445;-56
2022/08/18 13:48:16;;;;;;;14.05;8.27;;;30.00;1.00;;;;;;5028335;28;20539;-56
2022/08/18 13:50:43;;;;;;;13.50;8.63;;;30.20;1.00;;;;;;5028238;28;20395;-56
2022/08/18 13:53:20;;;;;;;11.87;7.90;;;30.30;1.00;;;;;;5027895;28;20415;-56
2022/08/18 13:55:45;;;;;;;17.10;7.90;;;30.30;1.00;;;;;;5028344;28;20402;-55
2022/08/18 13:58:11;;;;;;;12.60;7.87;;;30.30;1.00;;;;;;5028676;28;20391;-56
2022/08/18 14:00:38;;;;;;;12.00;7.17;;;30.60;1.00;;;;;;5027619;28;20498;-55
2022/08/18 14:03:05;;;;;;;12.90;7.60;;;30.50;1.00;;;;;;5021756;28;20403;-55
2022/08/18 14:05:32;;;;;;;11.93;7.90;;;30.40;1.00;;;;;;5027541;28;20403;-56
2022/08/18 14:07:57;;;;;;;14.20;7.80;;;30.20;1.00;;;;;;5026831;28;20796;-56
2022/08/18 14:10:25;;;;;;;13.13;8.00;;;29.90;1.00;;;;;;5028030;28;20400;-55
2022/08/18 14:12:55;;;;;;;11.55;6.90;;;30.30;1.00;;;;;;5027593;28;20391;-56
2022/08/18 14:15:21;;;;;;;12.88;7.50;;;30.40;1.00;;;;;;5023876;28;20393;-56
2022/08/18 14:17:48;;;;;;;11.38;7.50;;;30.30;1.00;;;;;;5025963;28;20467;-56
2022/08/18 14:28:29;;;;;;;12.38;7.80;;;30.10;1.00;;;;;;5028153;28;20451;-55
2022/08/18 14:30:56;;;;;;;12.15;7.43;;;30.10;1.00;;;;;;5026867;28;20394;-55
2022/08/18 14:33:23;;;;;;;13.25;8.02;;;29.90;1.00;;;;;;5028074;28;20422;-55
2022/08/18 14:35:49;;;;;;;13.20;7.25;;;;;;;;;;5027826;28;20407;-55
2022/08/18 14:38:16;;;;;;;12.53;7.93;;;29.60;1.00;;;;;;5026836;28;20390;-56
2022/08/18 14:40:44;;;;;;;12.10;7.53;;;29.60;1.00;;;;;;5028273;28;20429;-55